sensor_id;sensor_type;location;lat;lon;timestamp;P1;durP1;ratioP1;P2;durP2;ratioP2
727;SDS011;347;48.780;9.158;2023-12-22T00:00:46;5.80;;;5.60;;
727;SDS011;347;48.780;9.158;2023-12-22T00:03:13;7.20;;;6.70;;
727;SDS011;347;48.780;9.158;2023-12-22T00:05:40;6.57;;;6.17;;
727;SDS011;347;48.780;9.158;2023-12-22T00:08:06;6.20;;;5.80;;
727;SDS011;347;48.780;9.158;2023-12-22T00:10:31;7.10;;;6.53;;
727;SDS011;347;48.780;9.158;2023-12-22T00:12:57;5.80;;;5.40;;
727;SDS011;347;48.780;9.158;2023-12-22T00:15:22;6.20;;;5.90;;
727;SDS011;347;48.780;9.158;2023-12-22T00:17:48;6.97;;;6.30;;
727;SDS011;347;48.780;9.158;2023-12-22T00:20:14;6.53;;;6.07;;
727;SDS011;347;48.780;9.158;2023-12-22T00:22:40;7.00;;;6.10;;
727;SDS011;347;48.780;9.158;2023-12-22T00:25:05;6.20;;;5.60;;
727;SDS011;347;48.780;9.158;2023-12-22T00:27:33;7.50;;;7.00;;
727;SDS011;347;48.780;9.158;2023-12-22T00:29:58;7.43;;;7.00;;
727;SDS011;347;48.780;9.158;2023-12-22T00:32:24;7.03;;;6.20;;
727;SDS011;347;48.780;9.158;2023-12-22T00:34:50;6.40;;;5.80;;
727;SDS011;347;48.780;9.158;2023-12-22T00:37:15;6.30;;;5.90;;
727;SDS011;347;48.780;9.158;2023-12-22T00:39:41;6.10;;;5.80;;
727;SDS011;347;48.780;9.158;2023-12-22T00:42:07;6.30;;;6.00;;
727;SDS011;347;48.780;9.158;2023-12-22T00:44:32;7.10;;;6.50;;
727;SDS011;347;48.780;9.158;2023-12-22T00:46:58;7.13;;;6.43;;
727;SDS011;347;48.780;9.158;2023-12-22T00:49:24;6.57;;;6.07;;
727;SDS011;347;48.780;9.158;2023-12-22T00:51:49;5.63;;;5.30;;
727;SDS011;347;48.780;9.158;2023-12-22T00:54:15;6.00;;;5.53;;
727;SDS011;347;48.780;9.158;2023-12-22T00:56:40;6.60;;;6.10;;
727;SDS011;347;48.780;9.158;2023-12-22T00:59:06;6.60;;;6.03;;
727;SDS011;347;48.780;9.158;2023-12-22T01:01:32;6.10;;;5.60;;
727;SDS011;347;48.780;9.158;2023-12-22T01:03:57;7.43;;;6.47;;
727;SDS011;347;48.780;9.158;2023-12-22T01:06:23;6.50;;;6.10;;
727;SDS011;347;48.780;9.158;2023-12-22T01:08:48;6.67;;;6.27;;
727;SDS011;347;48.780;9.158;2023-12-22T01:11:15;6.63;;;6.03;;
727;SDS011;347;48.780;9.158;2023-12-22T01:13:42;6.93;;;6.33;;
727;SDS011;347;48.780;9.158;2023-12-22T01:16:08;6.70;;;6.20;;
727;SDS011;347;48.780;9.158;2023-12-22T01:18:33;6.47;;;6.13;;
727;SDS011;347;48.780;9.158;2023-12-22T01:20:59;6.70;;;6.30;;
727;SDS011;347;48.780;9.158;2023-12-22T01:23:25;6.53;;;6.10;;
727;SDS011;347;48.780;9.158;2023-12-22T01:25:50;6.90;;;6.33;;
727;SDS011;347;48.780;9.158;2023-12-22T01:28:16;6.90;;;6.50;;
727;SDS011;347;48.780;9.158;2023-12-22T01:30:42;6.10;;;5.80;;
727;SDS011;347;48.780;9.158;2023-12-22T01:33:08;6.80;;;6.23;;
727;SDS011;347;48.780;9.158;2023-12-22T01:35:33;6.13;;;5.83;;
727;SDS011;347;48.780;9.158;2023-12-22T01:37:59;6.07;;;5.70;;
727;SDS011;347;48.780;9.158;2023-12-22T01:40:25;7.50;;;6.90;;
727;SDS011;347;48.780;9.158;2023-12-22T01:42:50;6.47;;;6.07;;
727;SDS011;347;48.780;9.158;2023-12-22T01:45:16;7.17;;;6.57;;
727;SDS011;347;48.780;9.158;2023-12-22T01:47:42;7.37;;;6.60;;
727;SDS011;347;48.780;9.158;2023-12-22T01:50:09;6.30;;;6.00;;
727;SDS011;347;48.780;9.158;2023-12-22T01:52:37;6.30;;;6.00;;
727;SDS011;347;48.780;9.158;2023-12-22T01:55:04;6.50;;;6.10;;
727;SDS011;347;48.780;9.158;2023-12-22T01:57:31;7.17;;;6.60;;
727;SDS011;347;48.780;9.158;2023-12-22T01:59:59;6.17;;;5.80;;
727;SDS011;347;48.780;9.158;2023-12-22T02:02:25;6.60;;;6.30;;
727;SDS011;347;48.780;9.158;2023-12-22T02:04:52;5.77;;;5.47;;
727;SDS011;347;48.780;9.158;2023-12-22T02:07:18;5.87;;;5.53;;
727;SDS011;347;48.780;9.158;2023-12-22T02:09:44;6.20;;;5.90;;
727;SDS011;347;48.780;9.158;2023-12-22T02:12:10;7.03;;;6.63;;
727;SDS011;347;48.780;9.158;2023-12-22T02:14:35;7.10;;;6.60;;
727;SDS011;347;48.780;9.158;2023-12-22T02:17:13;5.60;;;5.33;;
727;SDS011;347;48.780;9.158;2023-12-22T02:19:47;5.80;;;5.50;;
727;SDS011;347;48.780;9.158;2023-12-22T02:22:13;5.87;;;5.57;;
727;SDS011;347;48.780;9.158;2023-12-22T02:24:39;6.37;;;6.00;;
727;SDS011;347;48.780;9.158;2023-12-22T02:29:41;6.90;;;6.30;;
727;SDS011;347;48.780;9.158;2023-12-22T02:32:17;5.83;;;5.53;;
727;SDS011;347;48.780;9.158;2023-12-22T02:34:49;6.47;;;6.00;;
727;SDS011;347;48.780;9.158;2023-12-22T02:37:17;6.43;;;5.90;;
727;SDS011;347;48.780;9.158;2023-12-22T02:39:45;6.03;;;5.83;;
727;SDS011;347;48.780;9.158;2023-12-22T02:42:12;6.23;;;5.83;;
727;SDS011;347;48.780;9.158;2023-12-22T02:44:38;6.40;;;6.10;;
727;SDS011;347;48.780;9.158;2023-12-22T02:47:04;7.17;;;6.73;;
727;SDS011;347;48.780;9.158;2023-12-22T02:49:29;6.33;;;5.97;;
727;SDS011;347;48.780;9.158;2023-12-22T02:51:55;7.10;;;6.53;;
727;SDS011;347;48.780;9.158;2023-12-22T02:54:21;6.63;;;6.23;;
727;SDS011;347;48.780;9.158;2023-12-22T02:56:47;7.03;;;6.63;;
727;SDS011;347;48.780;9.158;2023-12-22T02:59:12;7.50;;;7.00;;
727;SDS011;347;48.780;9.158;2023-12-22T03:01:38;7.20;;;6.50;;
727;SDS011;347;48.780;9.158;2023-12-22T03:04:04;7.10;;;6.70;;
727;SDS011;347;48.780;9.158;2023-12-22T03:06:29;7.53;;;7.03;;
727;SDS011;347;48.780;9.158;2023-12-22T03:08:55;6.73;;;6.43;;
727;SDS011;347;48.780;9.158;2023-12-22T03:11:20;7.40;;;6.90;;
727;SDS011;347;48.780;9.158;2023-12-22T03:13:46;6.90;;;6.53;;
727;SDS011;347;48.780;9.158;2023-12-22T03:16:12;7.53;;;7.03;;
727;SDS011;347;48.780;9.158;2023-12-22T03:18:38;6.87;;;6.57;;
727;SDS011;347;48.780;9.158;2023-12-22T03:21:04;6.90;;;6.50;;
727;SDS011;347;48.780;9.158;2023-12-22T03:23:30;6.57;;;6.27;;
727;SDS011;347;48.780;9.158;2023-12-22T03:25:55;7.03;;;6.53;;
727;SDS011;347;48.780;9.158;2023-12-22T03:28:21;6.50;;;6.17;;
727;SDS011;347;48.780;9.158;2023-12-22T03:30:47;7.07;;;6.57;;
727;SDS011;347;48.780;9.158;2023-12-22T03:33:12;6.33;;;6.00;;
727;SDS011;347;48.780;9.158;2023-12-22T03:35:38;6.23;;;5.90;;
727;SDS011;347;48.780;9.158;2023-12-22T03:38:03;6.50;;;6.27;;
727;SDS011;347;48.780;9.158;2023-12-22T03:40:29;6.47;;;5.97;;
727;SDS011;347;48.780;9.158;2023-12-22T03:42:55;6.80;;;6.30;;
727;SDS011;347;48.780;9.158;2023-12-22T03:45:20;6.20;;;5.90;;
727;SDS011;347;48.780;9.158;2023-12-22T03:47:46;7.50;;;7.00;;
727;SDS011;347;48.780;9.158;2023-12-22T03:50:12;7.37;;;6.77;;
727;SDS011;347;48.780;9.158;2023-12-22T03:52:37;6.90;;;6.37;;
727;SDS011;347;48.780;9.158;2023-12-22T03:55:03;7.60;;;7.03;;
727;SDS011;347;48.780;9.158;2023-12-22T03:57:29;6.17;;;5.87;;
727;SDS011;347;48.780;9.158;2023-12-22T03:59:54;7.43;;;6.83;;
727;SDS011;347;48.780;9.158;2023-12-22T04:02:20;6.90;;;6.50;;
727;SDS011;347;48.780;9.158;2023-12-22T04:04:46;8.00;;;7.30;;
727;SDS011;347;48.780;9.158;2023-12-22T04:07:11;8.07;;;7.50;;
727;SDS011;347;48.780;9.158;2023-12-22T04:09:37;8.10;;;7.57;;
727;SDS011;347;48.780;9.158;2023-12-22T04:12:05;7.40;;;6.90;;
727;SDS011;347;48.780;9.158;2023-12-22T04:14:31;8.23;;;7.43;;
727;SDS011;347;48.780;9.158;2023-12-22T04:16:57;8.37;;;7.50;;
727;SDS011;347;48.780;9.158;2023-12-22T04:19:22;7.60;;;7.03;;
727;SDS011;347;48.780;9.158;2023-12-22T04:21:48;7.80;;;7.20;;
727;SDS011;347;48.780;9.158;2023-12-22T04:24:14;8.20;;;7.60;;
727;SDS011;347;48.780;9.158;2023-12-22T04:26:40;7.80;;;7.20;;
727;SDS011;347;48.780;9.158;2023-12-22T04:29:05;8.03;;;7.20;;
727;SDS011;347;48.780;9.158;2023-12-22T04:31:31;7.90;;;7.37;;
727;SDS011;347;48.780;9.158;2023-12-22T04:33:56;7.70;;;7.20;;
727;SDS011;347;48.780;9.158;2023-12-22T04:36:22;8.23;;;7.50;;
727;SDS011;347;48.780;9.158;2023-12-22T04:38:48;6.87;;;6.47;;
727;SDS011;347;48.780;9.158;2023-12-22T04:41:13;6.67;;;6.37;;
727;SDS011;347;48.780;9.158;2023-12-22T04:43:39;7.13;;;6.80;;
727;SDS011;347;48.780;9.158;2023-12-22T04:46:04;6.50;;;6.07;;
727;SDS011;347;48.780;9.158;2023-12-22T04:48:30;6.50;;;6.20;;
727;SDS011;347;48.780;9.158;2023-12-22T04:50:58;6.70;;;6.30;;
727;SDS011;347;48.780;9.158;2023-12-22T04:53:23;6.83;;;6.33;;
727;SDS011;347;48.780;9.158;2023-12-22T04:55:49;6.33;;;6.13;;
727;SDS011;347;48.780;9.158;2023-12-22T04:58:14;6.77;;;6.40;;
727;SDS011;347;48.780;9.158;2023-12-22T05:00:40;6.50;;;6.20;;
727;SDS011;347;48.780;9.158;2023-12-22T05:03:06;6.80;;;6.40;;
727;SDS011;347;48.780;9.158;2023-12-22T05:05:31;7.13;;;6.73;;
727;SDS011;347;48.780;9.158;2023-12-22T05:07:57;5.97;;;5.67;;
727;SDS011;347;48.780;9.158;2023-12-22T05:10:22;6.43;;;6.13;;
727;SDS011;347;48.780;9.158;2023-12-22T05:12:48;6.27;;;5.80;;
727;SDS011;347;48.780;9.158;2023-12-22T05:15:14;7.50;;;6.90;;
727;SDS011;347;48.780;9.158;2023-12-22T05:17:39;7.20;;;6.80;;
727;SDS011;347;48.780;9.158;2023-12-22T05:20:06;8.70;;;8.03;;
727;SDS011;347;48.780;9.158;2023-12-22T05:22:32;7.30;;;6.80;;
727;SDS011;347;48.780;9.158;2023-12-22T05:24:57;7.57;;;7.10;;
727;SDS011;347;48.780;9.158;2023-12-22T05:27:23;7.83;;;7.10;;
727;SDS011;347;48.780;9.158;2023-12-22T05:29:51;8.43;;;7.80;;
727;SDS011;347;48.780;9.158;2023-12-22T05:32:17;8.17;;;7.50;;
727;SDS011;347;48.780;9.158;2023-12-22T05:34:43;8.33;;;7.77;;
727;SDS011;347;48.780;9.158;2023-12-22T05:37:08;9.67;;;8.60;;
727;SDS011;347;48.780;9.158;2023-12-22T05:39:34;8.33;;;7.73;;
727;SDS011;347;48.780;9.158;2023-12-22T05:41:59;7.83;;;7.40;;
727;SDS011;347;48.780;9.158;2023-12-22T05:44:25;8.27;;;7.50;;
727;SDS011;347;48.780;9.158;2023-12-22T05:46:54;7.97;;;7.27;;
727;SDS011;347;48.780;9.158;2023-12-22T05:49:20;7.80;;;7.10;;
727;SDS011;347;48.780;9.158;2023-12-22T05:51:46;8.07;;;7.40;;
727;SDS011;347;48.780;9.158;2023-12-22T05:54:12;8.77;;;7.97;;
727;SDS011;347;48.780;9.158;2023-12-22T05:56:38;13.20;;;8.23;;
727;SDS011;347;48.780;9.158;2023-12-22T05:59:03;7.87;;;7.33;;
727;SDS011;347;48.780;9.158;2023-12-22T06:01:29;8.70;;;7.90;;
727;SDS011;347;48.780;9.158;2023-12-22T06:03:55;8.03;;;7.40;;
727;SDS011;347;48.780;9.158;2023-12-22T06:06:21;7.93;;;7.33;;
727;SDS011;347;48.780;9.158;2023-12-22T06:08:47;9.77;;;8.83;;
727;SDS011;347;48.780;9.158;2023-12-22T06:11:13;8.77;;;8.17;;
727;SDS011;347;48.780;9.158;2023-12-22T06:13:39;8.50;;;7.70;;
727;SDS011;347;48.780;9.158;2023-12-22T06:16:04;8.00;;;7.30;;
727;SDS011;347;48.780;9.158;2023-12-22T06:18:30;8.23;;;7.20;;
727;SDS011;347;48.780;9.158;2023-12-22T06:20:56;8.43;;;7.83;;
727;SDS011;347;48.780;9.158;2023-12-22T06:23:21;8.87;;;8.13;;
727;SDS011;347;48.780;9.158;2023-12-22T06:25:47;8.77;;;8.00;;
727;SDS011;347;48.780;9.158;2023-12-22T06:28:13;9.20;;;8.40;;
727;SDS011;347;48.780;9.158;2023-12-22T06:30:41;10.43;;;9.33;;
727;SDS011;347;48.780;9.158;2023-12-22T06:33:08;8.70;;;8.00;;
727;SDS011;347;48.780;9.158;2023-12-22T06:35:33;8.63;;;7.87;;
727;SDS011;347;48.780;9.158;2023-12-22T06:37:59;8.97;;;8.17;;
727;SDS011;347;48.780;9.158;2023-12-22T06:40:28;9.50;;;8.80;;
727;SDS011;347;48.780;9.158;2023-12-22T06:42:54;8.87;;;7.30;;
727;SDS011;347;48.780;9.158;2023-12-22T06:45:20;11.00;;;8.10;;
727;SDS011;347;48.780;9.158;2023-12-22T06:47:45;9.40;;;7.63;;
727;SDS011;347;48.780;9.158;2023-12-22T06:50:11;8.97;;;8.27;;
727;SDS011;347;48.780;9.158;2023-12-22T06:52:36;9.33;;;8.60;;
727;SDS011;347;48.780;9.158;2023-12-22T06:55:02;8.50;;;7.90;;
727;SDS011;347;48.780;9.158;2023-12-22T06:57:28;8.70;;;8.03;;
727;SDS011;347;48.780;9.158;2023-12-22T06:59:53;8.93;;;7.57;;
727;SDS011;347;48.780;9.158;2023-12-22T07:02:19;7.97;;;7.30;;
727;SDS011;347;48.780;9.158;2023-12-22T07:07:47;10.60;;;7.50;;
727;SDS011;347;48.780;9.158;2023-12-22T07:10:13;8.30;;;7.47;;
727;SDS011;347;48.780;9.158;2023-12-22T07:12:39;7.80;;;7.30;;
727;SDS011;347;48.780;9.158;2023-12-22T07:15:05;7.80;;;7.20;;
727;SDS011;347;48.780;9.158;2023-12-22T07:17:34;7.73;;;7.30;;
727;SDS011;347;48.780;9.158;2023-12-22T07:20:00;8.60;;;7.20;;
727;SDS011;347;48.780;9.158;2023-12-22T07:22:28;9.23;;;8.60;;
727;SDS011;347;48.780;9.158;2023-12-22T07:24:54;7.83;;;7.43;;
727;SDS011;347;48.780;9.158;2023-12-22T07:27:20;8.73;;;7.83;;
727;SDS011;347;48.780;9.158;2023-12-22T07:29:46;11.10;;;10.40;;
727;SDS011;347;48.780;9.158;2023-12-22T07:32:12;6.97;;;6.57;;
727;SDS011;347;48.780;9.158;2023-12-22T07:34:37;7.97;;;7.37;;
727;SDS011;347;48.780;9.158;2023-12-22T07:37:03;7.50;;;6.97;;
727;SDS011;347;48.780;9.158;2023-12-22T07:39:32;8.07;;;7.57;;
727;SDS011;347;48.780;9.158;2023-12-22T07:41:57;7.43;;;6.83;;
727;SDS011;347;48.780;9.158;2023-12-22T07:44:23;7.93;;;7.33;;
727;SDS011;347;48.780;9.158;2023-12-22T07:46:58;7.10;;;6.60;;
727;SDS011;347;48.780;9.158;2023-12-22T07:49:25;9.60;;;7.10;;
727;SDS011;347;48.780;9.158;2023-12-22T07:51:51;8.30;;;7.60;;
727;SDS011;347;48.780;9.158;2023-12-22T07:54:17;7.50;;;6.87;;
727;SDS011;347;48.780;9.158;2023-12-22T07:56:43;7.80;;;7.23;;
727;SDS011;347;48.780;9.158;2023-12-22T07:59:09;7.70;;;7.10;;
727;SDS011;347;48.780;9.158;2023-12-22T08:01:34;6.80;;;6.40;;
727;SDS011;347;48.780;9.158;2023-12-22T08:04:00;6.30;;;5.87;;
727;SDS011;347;48.780;9.158;2023-12-22T08:06:25;7.23;;;6.73;;
727;SDS011;347;48.780;9.158;2023-12-22T08:08:51;6.33;;;5.93;;
727;SDS011;347;48.780;9.158;2023-12-22T08:11:17;7.33;;;6.73;;
727;SDS011;347;48.780;9.158;2023-12-22T08:13:44;7.17;;;6.57;;
727;SDS011;347;48.780;9.158;2023-12-22T08:16:10;7.70;;;7.10;;
727;SDS011;347;48.780;9.158;2023-12-22T08:18:36;8.00;;;7.03;;
727;SDS011;347;48.780;9.158;2023-12-22T08:21:01;8.10;;;7.57;;
727;SDS011;347;48.780;9.158;2023-12-22T08:23:27;7.00;;;6.50;;
727;SDS011;347;48.780;9.158;2023-12-22T08:25:52;7.87;;;7.07;;
727;SDS011;347;48.780;9.158;2023-12-22T08:28:18;7.40;;;6.90;;
727;SDS011;347;48.780;9.158;2023-12-22T08:30:44;7.97;;;7.27;;
727;SDS011;347;48.780;9.158;2023-12-22T08:33:09;7.43;;;6.90;;
727;SDS011;347;48.780;9.158;2023-12-22T08:35:35;7.67;;;7.00;;
727;SDS011;347;48.780;9.158;2023-12-22T08:38:00;9.30;;;8.50;;
727;SDS011;347;48.780;9.158;2023-12-22T08:40:27;8.53;;;7.73;;
727;SDS011;347;48.780;9.158;2023-12-22T08:42:53;8.43;;;7.70;;
727;SDS011;347;48.780;9.158;2023-12-22T08:45:25;10.83;;;9.83;;
727;SDS011;347;48.780;9.158;2023-12-22T08:47:53;7.67;;;7.07;;
727;SDS011;347;48.780;9.158;2023-12-22T08:50:20;7.90;;;7.20;;
727;SDS011;347;48.780;9.158;2023-12-22T08:52:46;8.67;;;7.70;;
727;SDS011;347;48.780;9.158;2023-12-22T08:55:11;11.53;;;7.90;;
727;SDS011;347;48.780;9.158;2023-12-22T08:57:37;8.60;;;7.80;;
727;SDS011;347;48.780;9.158;2023-12-22T09:00:04;9.13;;;8.20;;
727;SDS011;347;48.780;9.158;2023-12-22T09:02:30;7.63;;;6.93;;
727;SDS011;347;48.780;9.158;2023-12-22T09:04:56;11.10;;;10.10;;
727;SDS011;347;48.780;9.158;2023-12-22T09:07:21;8.30;;;7.40;;
727;SDS011;347;48.780;9.158;2023-12-22T09:09:48;17.17;;;8.23;;
727;SDS011;347;48.780;9.158;2023-12-22T09:12:13;8.70;;;7.73;;
727;SDS011;347;48.780;9.158;2023-12-22T09:14:39;9.00;;;8.10;;
727;SDS011;347;48.780;9.158;2023-12-22T09:17:04;10.13;;;8.53;;
727;SDS011;347;48.780;9.158;2023-12-22T09:19:33;8.27;;;7.67;;
727;SDS011;347;48.780;9.158;2023-12-22T09:21:59;10.30;;;8.40;;
727;SDS011;347;48.780;9.158;2023-12-22T09:24:26;9.40;;;8.07;;
727;SDS011;347;48.780;9.158;2023-12-22T09:26:51;12.17;;;8.20;;
727;SDS011;347;48.780;9.158;2023-12-22T09:29:17;10.70;;;8.47;;
727;SDS011;347;48.780;9.158;2023-12-22T09:31:43;8.40;;;7.43;;
727;SDS011;347;48.780;9.158;2023-12-22T09:34:08;8.23;;;7.53;;
727;SDS011;347;48.780;9.158;2023-12-22T09:36:34;8.70;;;7.90;;
727;SDS011;347;48.780;9.158;2023-12-22T09:38:59;8.57;;;7.77;;
727;SDS011;347;48.780;9.158;2023-12-22T09:41:25;9.43;;;7.73;;
727;SDS011;347;48.780;9.158;2023-12-22T09:43:52;9.13;;;7.47;;
727;SDS011;347;48.780;9.158;2023-12-22T09:46:21;12.10;;;8.80;;
727;SDS011;347;48.780;9.158;2023-12-22T09:48:48;11.23;;;7.90;;
727;SDS011;347;48.780;9.158;2023-12-22T09:51:16;10.50;;;7.87;;
727;SDS011;347;48.780;9.158;2023-12-22T09:53:43;9.10;;;7.47;;
727;SDS011;347;48.780;9.158;2023-12-22T09:56:10;13.43;;;8.70;;
727;SDS011;347;48.780;9.158;2023-12-22T09:58:37;12.33;;;8.80;;
727;SDS011;347;48.780;9.158;2023-12-22T10:01:04;10.40;;;8.60;;
727;SDS011;347;48.780;9.158;2023-12-22T10:03:30;11.80;;;8.47;;
727;SDS011;347;48.780;9.158;2023-12-22T10:05:59;13.40;;;9.47;;
727;SDS011;347;48.780;9.158;2023-12-22T10:08:26;9.73;;;8.83;;
727;SDS011;347;48.780;9.158;2023-12-22T10:10:52;9.97;;;9.00;;
727;SDS011;347;48.780;9.158;2023-12-22T10:13:19;9.50;;;8.70;;
727;SDS011;347;48.780;9.158;2023-12-22T10:15:44;10.40;;;9.10;;
727;SDS011;347;48.780;9.158;2023-12-22T10:18:11;9.07;;;8.47;;
727;SDS011;347;48.780;9.158;2023-12-22T10:20:38;11.20;;;9.47;;
727;SDS011;347;48.780;9.158;2023-12-22T10:23:04;12.70;;;9.10;;
727;SDS011;347;48.780;9.158;2023-12-22T10:25:29;8.73;;;8.10;;
727;SDS011;347;48.780;9.158;2023-12-22T10:27:56;9.97;;;8.93;;
727;SDS011;347;48.780;9.158;2023-12-22T10:30:22;11.87;;;8.30;;
727;SDS011;347;48.780;9.158;2023-12-22T10:32:50;10.00;;;8.30;;
727;SDS011;347;48.780;9.158;2023-12-22T10:35:17;10.23;;;8.20;;
727;SDS011;347;48.780;9.158;2023-12-22T10:37:42;10.83;;;7.40;;
727;SDS011;347;48.780;9.158;2023-12-22T10:40:10;7.70;;;7.00;;
727;SDS011;347;48.780;9.158;2023-12-22T10:42:36;9.77;;;8.17;;
727;SDS011;347;48.780;9.158;2023-12-22T10:45:02;9.10;;;8.20;;
727;SDS011;347;48.780;9.158;2023-12-22T10:47:28;9.40;;;8.47;;
727;SDS011;347;48.780;9.158;2023-12-22T10:49:54;9.00;;;8.20;;
727;SDS011;347;48.780;9.158;2023-12-22T10:52:20;9.83;;;7.80;;
727;SDS011;347;48.780;9.158;2023-12-22T10:54:45;8.80;;;7.00;;
727;SDS011;347;48.780;9.158;2023-12-22T10:57:13;8.50;;;7.73;;
727;SDS011;347;48.780;9.158;2023-12-22T10:59:47;8.17;;;7.50;;
727;SDS011;347;48.780;9.158;2023-12-22T11:02:16;8.73;;;8.00;;
727;SDS011;347;48.780;9.158;2023-12-22T11:04:45;8.10;;;7.37;;
727;SDS011;347;48.780;9.158;2023-12-22T11:07:23;8.20;;;7.53;;
727;SDS011;347;48.780;9.158;2023-12-22T11:09:50;8.33;;;7.80;;
727;SDS011;347;48.780;9.158;2023-12-22T11:12:18;8.10;;;7.20;;
727;SDS011;347;48.780;9.158;2023-12-22T11:14:45;7.30;;;6.80;;
727;SDS011;347;48.780;9.158;2023-12-22T11:17:16;7.53;;;6.80;;
727;SDS011;347;48.780;9.158;2023-12-22T11:19:49;6.30;;;6.00;;
727;SDS011;347;48.780;9.158;2023-12-22T11:22:18;7.20;;;6.60;;
727;SDS011;347;48.780;9.158;2023-12-22T11:24:47;6.63;;;6.00;;
727;SDS011;347;48.780;9.158;2023-12-22T11:27:19;7.17;;;6.57;;
727;SDS011;347;48.780;9.158;2023-12-22T11:29:49;5.77;;;5.37;;
727;SDS011;347;48.780;9.158;2023-12-22T11:32:16;5.63;;;5.30;;
727;SDS011;347;48.780;9.158;2023-12-22T11:34:43;6.13;;;5.57;;
727;SDS011;347;48.780;9.158;2023-12-22T11:37:11;6.20;;;5.60;;
727;SDS011;347;48.780;9.158;2023-12-22T11:39:38;5.43;;;5.13;;
727;SDS011;347;48.780;9.158;2023-12-22T11:42:04;6.73;;;6.37;;
727;SDS011;347;48.780;9.158;2023-12-22T11:44:42;6.10;;;5.60;;
727;SDS011;347;48.780;9.158;2023-12-22T11:47:08;5.80;;;5.30;;
727;SDS011;347;48.780;9.158;2023-12-22T11:49:36;6.27;;;5.67;;
727;SDS011;347;48.780;9.158;2023-12-22T11:52:12;5.73;;;5.20;;
727;SDS011;347;48.780;9.158;2023-12-22T11:54:48;5.40;;;5.20;;
727;SDS011;347;48.780;9.158;2023-12-22T12:02:26;6.00;;;5.60;;
727;SDS011;347;48.780;9.158;2023-12-22T12:04:52;5.30;;;5.03;;
727;SDS011;347;48.780;9.158;2023-12-22T12:07:37;6.10;;;5.70;;
727;SDS011;347;48.780;9.158;2023-12-22T12:10:07;5.90;;;5.60;;
727;SDS011;347;48.780;9.158;2023-12-22T12:12:33;5.70;;;5.40;;
727;SDS011;347;48.780;9.158;2023-12-22T12:15:06;5.50;;;5.20;;
727;SDS011;347;48.780;9.158;2023-12-22T12:17:38;5.50;;;5.10;;
727;SDS011;347;48.780;9.158;2023-12-22T12:20:07;7.10;;;6.27;;
727;SDS011;347;48.780;9.158;2023-12-22T12:22:34;6.50;;;6.10;;
727;SDS011;347;48.780;9.158;2023-12-22T12:25:03;5.93;;;5.73;;
727;SDS011;347;48.780;9.158;2023-12-22T12:27:34;6.33;;;5.83;;
727;SDS011;347;48.780;9.158;2023-12-22T12:30:06;6.70;;;6.10;;
727;SDS011;347;48.780;9.158;2023-12-22T12:32:36;5.97;;;5.67;;
727;SDS011;347;48.780;9.158;2023-12-22T12:35:01;6.10;;;5.70;;
727;SDS011;347;48.780;9.158;2023-12-22T12:37:29;5.83;;;5.63;;
727;SDS011;347;48.780;9.158;2023-12-22T12:39:55;6.27;;;5.97;;
727;SDS011;347;48.780;9.158;2023-12-22T12:42:25;5.93;;;5.73;;
727;SDS011;347;48.780;9.158;2023-12-22T12:44:54;6.03;;;5.80;;
727;SDS011;347;48.780;9.158;2023-12-22T12:47:19;5.50;;;5.20;;
727;SDS011;347;48.780;9.158;2023-12-22T12:49:45;5.73;;;5.53;;
727;SDS011;347;48.780;9.158;2023-12-22T12:52:14;5.00;;;4.80;;
727;SDS011;347;48.780;9.158;2023-12-22T12:54:40;5.20;;;5.00;;
727;SDS011;347;48.780;9.158;2023-12-22T12:57:06;5.67;;;5.27;;
727;SDS011;347;48.780;9.158;2023-12-22T12:59:32;5.77;;;5.57;;
727;SDS011;347;48.780;9.158;2023-12-22T13:01:58;5.50;;;5.23;;
727;SDS011;347;48.780;9.158;2023-12-22T13:04:36;5.60;;;5.40;;
727;SDS011;347;48.780;9.158;2023-12-22T13:07:03;5.33;;;5.03;;
727;SDS011;347;48.780;9.158;2023-12-22T13:09:31;5.53;;;5.23;;
727;SDS011;347;48.780;9.158;2023-12-22T13:11:58;5.80;;;5.47;;
727;SDS011;347;48.780;9.158;2023-12-22T13:14:25;6.10;;;5.90;;
727;SDS011;347;48.780;9.158;2023-12-22T13:16:52;5.70;;;5.40;;
727;SDS011;347;48.780;9.158;2023-12-22T13:19:22;4.97;;;4.87;;
727;SDS011;347;48.780;9.158;2023-12-22T13:21:49;4.90;;;4.80;;
727;SDS011;347;48.780;9.158;2023-12-22T13:24:16;6.20;;;5.90;;
727;SDS011;347;48.780;9.158;2023-12-22T13:26:42;5.40;;;5.20;;
727;SDS011;347;48.780;9.158;2023-12-22T13:29:09;5.07;;;4.87;;
727;SDS011;347;48.780;9.158;2023-12-22T13:31:36;4.90;;;4.70;;
727;SDS011;347;48.780;9.158;2023-12-22T13:34:03;5.40;;;5.20;;
727;SDS011;347;48.780;9.158;2023-12-22T13:36:34;5.40;;;5.20;;
727;SDS011;347;48.780;9.158;2023-12-22T13:39:01;5.10;;;5.00;;
727;SDS011;347;48.780;9.158;2023-12-22T13:41:31;5.40;;;5.20;;
727;SDS011;347;48.780;9.158;2023-12-22T13:44:06;5.53;;;5.43;;
727;SDS011;347;48.780;9.158;2023-12-22T13:46:32;5.47;;;5.23;;
727;SDS011;347;48.780;9.158;2023-12-22T13:49:00;5.80;;;5.60;;
727;SDS011;347;48.780;9.158;2023-12-22T13:51:27;5.50;;;5.40;;
727;SDS011;347;48.780;9.158;2023-12-22T13:54:03;5.70;;;5.50;;
727;SDS011;347;48.780;9.158;2023-12-22T13:56:32;6.03;;;5.83;;
727;SDS011;347;48.780;9.158;2023-12-22T13:59:02;5.70;;;5.40;;
727;SDS011;347;48.780;9.158;2023-12-22T14:01:29;5.40;;;5.20;;
727;SDS011;347;48.780;9.158;2023-12-22T14:03:54;4.80;;;4.70;;
727;SDS011;347;48.780;9.158;2023-12-22T14:06:22;5.57;;;5.47;;
727;SDS011;347;48.780;9.158;2023-12-22T14:08:49;5.20;;;5.10;;
727;SDS011;347;48.780;9.158;2023-12-22T14:11:15;5.80;;;5.60;;
727;SDS011;347;48.780;9.158;2023-12-22T14:13:40;5.67;;;5.47;;
727;SDS011;347;48.780;9.158;2023-12-22T14:16:06;6.00;;;5.90;;
727;SDS011;347;48.780;9.158;2023-12-22T14:18:32;5.10;;;5.00;;
727;SDS011;347;48.780;9.158;2023-12-22T14:20:57;6.27;;;6.07;;
727;SDS011;347;48.780;9.158;2023-12-22T14:23:24;6.03;;;5.83;;
727;SDS011;347;48.780;9.158;2023-12-22T14:25:50;6.30;;;6.10;;
727;SDS011;347;48.780;9.158;2023-12-22T14:28:16;6.40;;;6.20;;
727;SDS011;347;48.780;9.158;2023-12-22T14:30:41;6.17;;;5.97;;
727;SDS011;347;48.780;9.158;2023-12-22T14:33:07;5.73;;;5.53;;
727;SDS011;347;48.780;9.158;2023-12-22T14:35:34;6.57;;;6.23;;
727;SDS011;347;48.780;9.158;2023-12-22T14:38:00;5.90;;;5.80;;
727;SDS011;347;48.780;9.158;2023-12-22T14:40:26;7.13;;;6.93;;
727;SDS011;347;48.780;9.158;2023-12-22T14:42:51;6.27;;;6.07;;
727;SDS011;347;48.780;9.158;2023-12-22T14:45:17;6.57;;;6.37;;
727;SDS011;347;48.780;9.158;2023-12-22T14:47:42;5.63;;;5.50;;
727;SDS011;347;48.780;9.158;2023-12-22T14:50:08;6.17;;;5.97;;
727;SDS011;347;48.780;9.158;2023-12-22T14:52:34;5.97;;;5.87;;
727;SDS011;347;48.780;9.158;2023-12-22T14:55:00;6.60;;;6.40;;
727;SDS011;347;48.780;9.158;2023-12-22T14:57:26;6.70;;;6.50;;
727;SDS011;347;48.780;9.158;2023-12-22T14:59:55;6.53;;;6.33;;
727;SDS011;347;48.780;9.158;2023-12-22T15:02:21;6.50;;;6.30;;
727;SDS011;347;48.780;9.158;2023-12-22T15:04:47;6.03;;;5.83;;
727;SDS011;347;48.780;9.158;2023-12-22T15:07:16;5.90;;;5.80;;
727;SDS011;347;48.780;9.158;2023-12-22T15:09:42;6.27;;;6.07;;
727;SDS011;347;48.780;9.158;2023-12-22T15:12:09;6.03;;;5.83;;
727;SDS011;347;48.780;9.158;2023-12-22T15:14:35;6.33;;;6.13;;
727;SDS011;347;48.780;9.158;2023-12-22T15:17:01;6.27;;;6.07;;
727;SDS011;347;48.780;9.158;2023-12-22T15:19:26;7.73;;;7.30;;
727;SDS011;347;48.780;9.158;2023-12-22T15:21:52;6.07;;;5.97;;
727;SDS011;347;48.780;9.158;2023-12-22T15:24:18;6.03;;;5.83;;
727;SDS011;347;48.780;9.158;2023-12-22T15:26:44;6.10;;;5.90;;
727;SDS011;347;48.780;9.158;2023-12-22T15:29:10;6.13;;;6.03;;
727;SDS011;347;48.780;9.158;2023-12-22T15:31:35;6.27;;;6.07;;
727;SDS011;347;48.780;9.158;2023-12-22T15:34:01;6.13;;;5.93;;
727;SDS011;347;48.780;9.158;2023-12-22T15:36:28;5.93;;;5.83;;
727;SDS011;347;48.780;9.158;2023-12-22T15:38:54;6.53;;;6.33;;
727;SDS011;347;48.780;9.158;2023-12-22T15:41:20;5.87;;;5.67;;
727;SDS011;347;48.780;9.158;2023-12-22T15:43:46;5.97;;;5.80;;
727;SDS011;347;48.780;9.158;2023-12-22T15:46:11;6.70;;;6.50;;
727;SDS011;347;48.780;9.158;2023-12-22T15:48:37;6.73;;;6.53;;
727;SDS011;347;48.780;9.158;2023-12-22T15:51:10;6.77;;;6.50;;